Time;durP1;ratioP1;P1;durP2;ratioP2;P2;SDS_P1;SDS_P2;PMS_P1;PMS_P2;Temp;Humidity;BMP_temperature;BMP_pressure;BME280_temperature;BME280_humidity;BME280_pressure;Samples;Min_cycle;Max_cycle;Signal;HPM_P1;HPM_P2
2022/03/04 00:01:05;;;;;;;15.38;9.93;;;1.30;99.90;;;;;;4928096;29;20208;-84
2022/03/04 00:03:33;;;;;;;14.85;9.93;;;1.40;99.90;;;;;;4929847;29;20284;-84
2022/03/04 00:06:00;;;;;;;13.25;10.32;;;1.30;99.90;;;;;;4928521;29;20212;-85
2022/03/04 00:08:27;;;;;;;15.98;9.65;;;1.40;99.90;;;;;;4929518;29;20207;-85
2022/03/04 00:10:53;;;;;;;10.48;8.85;;;1.60;99.90;;;;;;4928853;29;20224;-84
2022/03/04 00:13:20;;;;;;;12.55;8.90;;;1.40;99.90;;;;;;4930659;29;20242;-84
2022/03/04 00:15:46;;;;;;;15.15;8.85;;;1.40;99.90;;;;;;4929373;29;20207;-85
2022/03/04 00:18:13;;;;;;;12.88;8.30;;;1.30;99.90;;;;;;4930827;29;20318;-84
2022/03/04 00:20:41;;;;;;;10.55;8.18;;;1.30;99.90;;;;;;4936107;29;20207;-85
2022/03/04 00:23:08;;;;;;;13.98;9.50;;;1.30;99.90;;;;;;4941857;28;20224;-85
2022/03/04 00:25:35;;;;;;;11.90;8.27;;;1.30;99.90;;;;;;4937521;28;20654;-85
2022/03/04 00:28:02;;;;;;;12.38;9.15;;;1.20;99.90;;;;;;4939489;29;20207;-85
2022/03/04 00:30:29;;;;;;;14.98;10.30;;;1.20;99.90;;;;;;4938391;29;20211;-85
2022/03/04 00:32:56;;;;;;;13.35;8.57;;;1.20;99.90;;;;;;4939654;28;20235;-85
2022/03/04 00:35:24;;;;;;;11.40;8.50;;;1.30;99.90;;;;;;4979021;23;20245;-83
2022/03/04 00:37:51;;;;;;;11.25;9.40;;;1.20;99.90;;;;;;4957508;29;20235;-84
2022/03/04 00:40:18;;;;;;;10.32;9.00;;;1.20;99.90;;;;;;4956843;29;20262;-84
2022/03/04 00:42:45;;;;;;;13.45;8.48;;;1.20;99.90;;;;;;4953116;29;20207;-84
2022/03/04 00:45:12;;;;;;;14.25;8.85;;;1.20;99.90;;;;;;4952115;29;20255;-84
2022/03/04 00:47:38;;;;;;;12.50;8.63;;;1.30;99.90;;;;;;4950216;29;20231;-84
2022/03/04 00:50:07;;;;;;;14.30;9.05;;;1.40;99.90;;;;;;4952522;29;20682;-83
2022/03/04 00:52:34;;;;;;;12.63;8.60;;;1.20;99.90;;;;;;4948325;29;20254;-84
2022/03/04 00:55:02;;;;;;;10.85;8.65;;;1.20;99.90;;;;;;4947794;29;20726;-83
2022/03/04 00:57:28;;;;;;;10.50;7.05;;;1.30;99.90;;;;;;4947513;29;20235;-83
2022/03/04 00:59:55;;;;;;;15.10;7.70;;;1.20;99.90;;;;;;4947504;29;20215;-82
2022/03/04 01:02:22;;;;;;;13.38;9.20;;;1.30;99.90;;;;;;4948191;29;20222;-84
2022/03/04 01:04:48;;;;;;;14.77;9.35;;;1.20;99.90;;;;;;4947758;29;20227;-83
2022/03/04 01:07:15;;;;;;;14.13;9.48;;;1.30;99.90;;;;;;4948379;29;20207;-83
2022/03/04 01:09:41;;;;;;;20.13;12.32;;;1.40;99.90;;;;;;4947077;29;20278;-83
2022/03/04 01:12:10;;;;;;;21.20;12.32;;;1.20;99.90;;;;;;4950730;29;20699;-83
2022/03/04 01:14:37;;;;;;;22.02;12.25;;;1.20;99.90;;;;;;4948134;29;20251;-84
2022/03/04 01:17:04;;;;;;;29.10;14.60;;;1.30;99.90;;;;;;4948832;29;20544;-84
2022/03/04 01:19:30;;;;;;;25.77;12.27;;;1.30;99.90;;;;;;4947713;29;20262;-85
2022/03/04 01:21:57;;;;;;;37.67;15.70;;;1.20;99.90;;;;;;4951193;29;20250;-84
2022/03/04 01:24:24;;;;;;;37.17;16.63;;;1.20;99.90;;;;;;4950450;29;20233;-84
2022/03/04 01:26:50;;;;;;;39.03;17.77;;;0.80;99.90;;;;;;4948916;29;20208;-84
2022/03/04 01:29:18;;;;;;;36.80;17.63;;;1.10;99.90;;;;;;4946998;29;20211;-83
2022/03/04 01:31:45;;;;;;;44.90;17.27;;;1.20;99.90;;;;;;4953676;29;20214;-85
2022/03/04 01:34:12;;;;;;;45.33;20.42;;;1.20;99.90;;;;;;4954596;29;20231;-85
2022/03/04 01:36:39;;;;;;;34.95;18.60;;;1.20;99.90;;;;;;4950921;29;20235;-84
2022/03/04 01:39:06;;;;;;;46.08;19.83;;;1.00;99.90;;;;;;4948258;29;20274;-84
2022/03/04 01:41:33;;;;;;;49.92;20.70;;;1.20;99.90;;;;;;4948144;29;20269;-84
2022/03/04 01:43:59;;;;;;;49.22;20.85;;;1.10;99.90;;;;;;4962035;28;20207;-84
2022/03/04 01:46:29;;;;;;;35.17;17.98;;;1.10;99.90;;;;;;4963197;28;20201;-83
2022/03/04 01:48:56;;;;;;;43.22;19.20;;;1.20;99.90;;;;;;4962314;28;20194;-83
2022/03/04 01:51:23;;;;;;;47.45;17.42;;;1.20;99.90;;;;;;4954327;28;20207;-82
2022/03/04 01:53:50;;;;;;;44.03;18.73;;;1.30;99.90;;;;;;4950505;29;20254;-85
2022/03/04 01:56:17;;;;;;;37.67;19.65;;;1.20;99.90;;;;;;4949488;29;20267;-84
2022/03/04 01:58:44;;;;;;;42.63;20.50;;;1.20;99.90;;;;;;4948676;29;20230;-84
2022/03/04 02:01:10;;;;;;;37.88;18.05;;;1.10;99.90;;;;;;4948707;29;20210;-84
2022/03/04 02:03:38;;;;;;;38.92;18.45;;;1.20;99.90;;;;;;4947433;29;20231;-84
2022/03/04 02:06:05;;;;;;;40.15;20.50;;;1.20;99.90;;;;;;4946810;29;20682;-83
2022/03/04 02:08:31;;;;;;;56.55;23.83;;;1.10;99.90;;;;;;4947524;29;20203;-82
2022/03/04 02:10:58;;;;;;;47.38;22.05;;;1.20;99.90;;;;;;4946598;29;20231;-84
2022/03/04 02:13:24;;;;;;;40.53;19.45;;;1.20;99.90;;;;;;4946045;29;20223;-84
2022/03/04 02:15:51;;;;;;;46.25;20.42;;;1.30;99.90;;;;;;4946387;29;20211;-84
2022/03/04 02:18:19;;;;;;;48.88;21.80;;;1.30;99.90;;;;;;4954959;29;20340;-85
2022/03/04 02:20:48;;;;;;;55.85;21.58;;;1.40;99.90;;;;;;4957345;29;20235;-82
2022/03/04 02:23:17;;;;;;;48.85;20.60;;;1.40;99.90;;;;;;4942886;29;20310;-83
2022/03/04 02:25:46;;;;;;;50.22;21.67;;;1.20;99.90;;;;;;4944499;29;20246;-83
2022/03/04 02:28:12;;;;;;;49.20;20.25;;;1.20;99.90;;;;;;4943342;29;20210;-83
2022/03/04 02:30:39;;;;;;;59.67;20.88;;;1.30;99.90;;;;;;4944721;29;20222;-84
2022/03/04 02:33:06;;;;;;;50.20;21.73;;;1.30;99.90;;;;;;4943888;29;20203;-83
2022/03/04 02:35:33;;;;;;;43.85;18.10;;;1.30;99.90;;;;;;4944431;29;20247;-83
2022/03/04 02:38:00;;;;;;;45.65;20.67;;;1.40;99.90;;;;;;4943819;29;20207;-83
2022/03/04 02:40:28;;;;;;;53.63;20.73;;;1.30;99.90;;;;;;4943304;29;20630;-83
2022/03/04 02:42:55;;;;;;;44.92;17.92;;;1.30;99.90;;;;;;4943355;29;20277;-83
2022/03/04 02:45:22;;;;;;;38.08;17.77;;;1.30;99.90;;;;;;4943952;29;20231;-83
2022/03/04 02:47:48;;;;;;;46.83;17.60;;;1.30;99.90;;;;;;4943919;29;20218;-83
2022/03/04 02:50:15;;;;;;;48.30;19.08;;;1.30;99.90;;;;;;4943121;29;20276;-83
2022/03/04 02:52:42;;;;;;;41.25;18.88;;;1.40;99.90;;;;;;4944000;29;20275;-83
2022/03/04 02:55:11;;;;;;;49.88;17.35;;;1.50;99.90;;;;;;4951120;29;20238;-83
2022/03/04 02:57:40;;;;;;;38.30;14.63;;;1.50;99.90;;;;;;4959418;29;20191;-84
2022/03/04 03:00:08;;;;;;;40.25;15.60;;;1.50;99.90;;;;;;4959118;29;20199;-83
2022/03/04 03:02:34;;;;;;;33.35;14.35;;;1.40;99.90;;;;;;4959672;29;20279;-84
2022/03/04 03:05:01;;;;;;;37.35;16.15;;;2.00;99.90;;;;;;4958945;29;20231;-84
2022/03/04 03:07:28;;;;;;;35.65;17.13;;;1.60;99.90;;;;;;4954582;29;20207;-84
2022/03/04 03:09:54;;;;;;;37.63;18.50;;;1.50;99.90;;;;;;4948079;29;20199;-84
2022/03/04 03:12:21;;;;;;;30.80;14.27;;;1.50;99.90;;;;;;4955708;29;20211;-84
2022/03/04 03:14:49;;;;;;;39.08;15.63;;;1.50;99.90;;;;;;4957387;29;20227;-84
2022/03/04 03:17:16;;;;;;;35.35;15.57;;;1.60;99.90;;;;;;4958023;29;20207;-84
2022/03/04 03:19:42;;;;;;;39.78;16.15;;;1.60;99.90;;;;;;4958551;29;20198;-84
2022/03/04 03:22:09;;;;;;;34.53;16.13;;;1.60;99.90;;;;;;4957098;29;20593;-84
2022/03/04 03:24:36;;;;;;;41.10;15.65;;;1.60;99.90;;;;;;4956352;29;20337;-84
2022/03/04 03:27:02;;;;;;;33.85;15.52;;;1.50;99.90;;;;;;4955210;29;20211;-83
2022/03/04 03:29:29;;;;;;;31.48;13.60;;;1.60;99.90;;;;;;4952326;29;20211;-84
2022/03/04 03:31:57;;;;;;;39.25;15.35;;;1.60;99.90;;;;;;4949041;29;20262;-83
2022/03/04 03:34:24;;;;;;;40.33;14.65;;;1.70;99.90;;;;;;4949061;29;20239;-83
2022/03/04 03:36:50;;;;;;;36.58;12.77;;;1.60;99.90;;;;;;4948074;29;20203;-84
2022/03/04 03:39:17;;;;;;;35.17;13.15;;;1.70;99.90;;;;;;4945871;29;20211;-83
2022/03/04 03:41:43;;;;;;;33.15;13.20;;;1.70;99.90;;;;;;4944604;29;20207;-84
2022/03/04 03:44:10;;;;;;;33.67;13.88;;;1.70;99.90;;;;;;4955078;29;20233;-84
2022/03/04 03:46:36;;;;;;;32.40;12.88;;;1.70;99.90;;;;;;4955177;29;20655;-84
2022/03/04 03:49:05;;;;;;;35.30;10.82;;;1.70;99.90;;;;;;4953296;29;20198;-83
2022/03/04 03:51:32;;;;;;;33.35;12.40;;;1.70;99.90;;;;;;4953321;29;20270;-83
2022/03/04 03:53:59;;;;;;;26.30;10.23;;;1.70;99.90;;;;;;4955629;29;20216;-84
2022/03/04 03:56:25;;;;;;;29.55;12.98;;;1.80;99.90;;;;;;4957790;29;20215;-83
2022/03/04 03:58:52;;;;;;;26.92;11.15;;;1.80;99.90;;;;;;4956996;29;20243;-84
2022/03/04 04:01:19;;;;;;;23.75;11.65;;;1.80;99.90;;;;;;4957427;29;20202;-84
2022/03/04 04:03:46;;;;;;;38.90;19.35;;;1.90;99.90;;;;;;4949475;29;20238;-84
2022/03/04 04:06:14;;;;;;;43.03;20.42;;;2.00;99.90;;;;;;4947735;29;20239;-84
2022/03/04 04:08:41;;;;;;;32.47;17.63;;;1.80;99.90;;;;;;4945680;29;20234;-84
2022/03/04 04:11:07;;;;;;;33.70;16.65;;;1.80;99.90;;;;;;4944773;29;20230;-84
2022/03/04 04:13:34;;;;;;;38.10;18.20;;;1.90;99.90;;;;;;4944620;29;20223;-84
2022/03/04 04:16:01;;;;;;;43.17;21.33;;;1.80;99.90;;;;;;4955244;28;20198;-82
2022/03/04 04:18:27;;;;;;;34.90;16.98;;;1.80;99.90;;;;;;4960429;28;20183;-82
2022/03/04 04:20:54;;;;;;;32.55;14.68;;;1.80;99.90;;;;;;4959261;28;20218;-83
2022/03/04 04:23:22;;;;;;;27.20;13.10;;;1.60;99.90;;;;;;4956738;29;20233;-84
2022/03/04 04:25:48;;;;;;;25.23;12.23;;;1.90;99.90;;;;;;4949124;29;20258;-84
2022/03/04 04:28:15;;;;;;;26.52;11.30;;;1.80;99.90;;;;;;4945048;29;20213;-84
2022/03/04 04:30:42;;;;;;;26.85;11.38;;;1.80;99.90;;;;;;4949683;29;20589;-83
2022/03/04 04:33:08;;;;;;;35.60;12.73;;;1.70;99.90;;;;;;4945315;29;20577;-85
2022/03/04 04:35:35;;;;;;;27.75;11.77;;;1.70;99.90;;;;;;4944693;29;20249;-84
2022/03/04 04:38:01;;;;;;;25.33;11.80;;;1.80;99.90;;;;;;4944182;29;20211;-84
2022/03/04 04:40:29;;;;;;;25.58;11.40;;;1.80;99.90;;;;;;4943710;29;20210;-84
2022/03/04 04:42:56;;;;;;;22.90;11.20;;;1.70;99.90;;;;;;4943155;29;20231;-84
2022/03/04 04:45:23;;;;;;;23.67;10.45;;;1.60;99.90;;;;;;4942992;29;20618;-84
2022/03/04 04:47:49;;;;;;;21.67;12.02;;;1.60;99.90;;;;;;4942347;29;20555;-84
2022/03/04 04:50:16;;;;;;;19.67;10.55;;;1.50;99.90;;;;;;4942501;29;20211;-84
2022/03/04 04:52:42;;;;;;;24.65;12.38;;;1.50;99.90;;;;;;4943389;29;20675;-83
2022/03/04 04:55:10;;;;;;;25.33;12.30;;;1.50;99.90;;;;;;4943688;29;20250;-83
2022/03/04 04:57:38;;;;;;;23.90;11.77;;;1.50;99.90;;;;;;4943585;29;20558;-83
2022/03/04 05:00:06;;;;;;;25.45;12.20;;;1.40;99.90;;;;;;4943572;29;20634;-83
2022/03/04 05:02:32;;;;;;;20.13;11.00;;;1.40;99.90;;;;;;4946053;29;20254;-83
2022/03/04 05:04:59;;;;;;;27.30;9.85;;;1.40;99.90;;;;;;4945444;29;20231;-84
2022/03/04 05:07:26;;;;;;;24.98;9.95;;;1.30;99.90;;;;;;4945946;29;20306;-83
2022/03/04 05:09:52;;;;;;;19.20;10.70;;;1.30;99.90;;;;;;4946402;29;20207;-83
2022/03/04 05:12:19;;;;;;;20.48;11.68;;;1.20;99.90;;;;;;4945534;29;20207;-84
2022/03/04 05:14:47;;;;;;;20.13;10.20;;;1.10;99.90;;;;;;4945443;29;20320;-83
2022/03/04 05:17:13;;;;;;;22.67;10.57;;;1.10;99.90;;;;;;4945261;29;20203;-84
2022/03/04 05:19:40;;;;;;;24.33;10.30;;;1.10;99.90;;;;;;4946015;29;20211;-84
2022/03/04 05:22:07;;;;;;;22.15;11.27;;;1.20;99.90;;;;;;4944834;29;20274;-84
2022/03/04 05:24:33;;;;;;;17.58;10.45;;;1.10;99.90;;;;;;4945564;29;20237;-84
2022/03/04 05:27:00;;;;;;;21.85;12.30;;;1.20;99.90;;;;;;4946242;29;20207;-84
2022/03/04 05:29:26;;;;;;;22.38;10.20;;;1.20;99.90;;;;;;4945621;29;20709;-83
2022/03/04 05:31:54;;;;;;;20.85;11.75;;;1.20;99.90;;;;;;4945578;29;20349;-83
2022/03/04 05:34:21;;;;;;;22.85;10.52;;;1.20;99.90;;;;;;4945319;29;20235;-83
2022/03/04 05:36:47;;;;;;;21.55;10.65;;;1.20;99.90;;;;;;4944173;29;20249;-83
2022/03/04 05:39:14;;;;;;;25.08;12.13;;;1.30;99.90;;;;;;4944346;29;20206;-84
2022/03/04 05:41:41;;;;;;;28.98;14.00;;;1.30;99.90;;;;;;4947533;29;20250;-82
2022/03/04 05:44:08;;;;;;;29.73;13.18;;;1.20;99.90;;;;;;4948922;29;20698;-83
2022/03/04 05:46:35;;;;;;;23.35;11.40;;;1.30;99.90;;;;;;4948097;29;20211;-84
2022/03/04 05:49:03;;;;;;;25.02;11.80;;;1.30;99.90;;;;;;4950332;29;20207;-84
2022/03/04 05:51:30;;;;;;;19.05;9.70;;;1.40;99.90;;;;;;4959438;29;20207;-84
2022/03/04 05:53:57;;;;;;;18.20;10.73;;;1.50;99.90;;;;;;4952430;29;20231;-84
2022/03/04 05:56:24;;;;;;;22.33;10.40;;;1.50;99.90;;;;;;4960608;29;20211;-84
2022/03/04 05:58:51;;;;;;;24.65;11.60;;;1.60;99.90;;;;;;4959005;29;20239;-84
2022/03/04 06:01:19;;;;;;;28.13;12.82;;;1.60;99.90;;;;;;4950565;29;20206;-86
2022/03/04 06:03:46;;;;;;;23.15;12.35;;;1.70;99.90;;;;;;4954595;29;20234;-85
2022/03/04 06:06:14;;;;;;;22.48;12.70;;;1.70;99.90;;;;;;4952877;29;20214;-85
2022/03/04 06:08:42;;;;;;;24.48;12.52;;;1.90;99.90;;;;;;4952470;29;20207;-85
2022/03/04 06:11:09;;;;;;;26.98;12.88;;;1.90;99.90;;;;;;4951575;29;20214;-85
2022/03/04 06:13:35;;;;;;;27.60;12.70;;;2.00;99.90;;;;;;4951014;29;20274;-85
2022/03/04 06:16:02;;;;;;;21.02;10.30;;;2.00;99.90;;;;;;4949989;29;20561;-85
2022/03/04 06:18:29;;;;;;;16.17;9.95;;;2.00;99.90;;;;;;4951333;29;20211;-85
2022/03/04 06:20:56;;;;;;;18.05;10.38;;;2.20;99.90;;;;;;4950415;29;20266;-86
2022/03/04 06:23:24;;;;;;;20.75;9.50;;;2.10;99.90;;;;;;4952734;29;20239;-85
2022/03/04 06:25:50;;;;;;;18.10;10.40;;;2.20;99.90;;;;;;4949984;29;20195;-85
2022/03/04 06:28:17;;;;;;;15.52;10.25;;;2.10;99.90;;;;;;4951460;29;20213;-85
2022/03/04 06:30:44;;;;;;;17.30;8.55;;;2.10;99.90;;;;;;4953271;28;20199;-84
2022/03/04 06:35:56;;;;;;;18.10;7.45;;;2.30;99.90;;;;;;4958601;23;20781;-85
2022/03/04 06:38:24;;;;;;;12.95;7.93;;;2.30;99.90;;;;;;4946365;29;20249;-85
2022/03/04 06:40:51;;;;;;;15.45;7.32;;;2.40;99.90;;;;;;4950326;29;20230;-85
2022/03/04 06:43:18;;;;;;;11.52;5.88;;;2.30;99.90;;;;;;4946440;29;20249;-85
2022/03/04 06:45:47;;;;;;;9.70;6.10;;;2.40;99.90;;;;;;4945748;29;20235;-85
2022/03/04 06:48:17;;;;;;;7.68;5.47;;;2.40;99.90;;;;;;4955812;28;20198;-84
2022/03/04 06:50:44;;;;;;;7.85;5.65;;;2.40;99.90;;;;;;4949633;29;20206;-85
2022/03/04 06:53:11;;;;;;;7.28;4.85;;;2.40;99.90;;;;;;4952373;29;20266;-86
2022/03/04 06:55:40;;;;;;;9.32;5.57;;;2.50;99.90;;;;;;4953065;29;20230;-84
2022/03/04 06:58:06;;;;;;;5.28;4.85;;;2.50;99.90;;;;;;4954511;28;20206;-85
2022/03/04 07:00:33;;;;;;;12.45;6.10;;;2.60;99.90;;;;;;4947853;29;20586;-85
2022/03/04 07:03:00;;;;;;;8.80;4.20;;;2.70;99.90;;;;;;4946101;29;20213;-85
2022/03/04 07:05:27;;;;;;;6.82;4.57;;;2.50;99.90;;;;;;4944667;29;20250;-85
2022/03/04 07:07:55;;;;;;;7.05;5.13;;;2.50;99.90;;;;;;4946076;29;20235;-85
2022/03/04 07:10:22;;;;;;;6.32;4.45;;;2.50;99.90;;;;;;4949894;29;20235;-85
2022/03/04 07:12:50;;;;;;;7.03;5.63;;;2.50;99.90;;;;;;4952885;29;20234;-85
2022/03/04 07:15:19;;;;;;;5.65;4.05;;;2.50;99.90;;;;;;4953047;29;20235;-85
2022/03/04 07:17:46;;;;;;;4.47;3.78;;;2.70;99.90;;;;;;4949858;29;20258;-85
2022/03/04 07:20:14;;;;;;;5.82;4.05;;;2.60;99.90;;;;;;4943889;29;20212;-85
2022/03/04 07:22:42;;;;;;;6.80;4.35;;;2.60;99.90;;;;;;4945369;29;20537;-85
2022/03/04 07:25:10;;;;;;;5.63;4.63;;;2.60;99.90;;;;;;4943683;29;20695;-85
2022/03/04 07:27:37;;;;;;;5.68;4.65;;;2.60;99.90;;;;;;4943127;29;20207;-85
2022/03/04 07:30:09;;;;;;;6.18;4.65;;;2.60;99.90;;;;;;4946988;29;20269;-85
2022/03/04 07:32:36;;;;;;;8.90;4.20;;;2.60;99.90;;;;;;4946000;29;20195;-85
2022/03/04 07:35:03;;;;;;;6.40;4.70;;;2.50;99.90;;;;;;4946055;29;20268;-85
2022/03/04 07:37:30;;;;;;;5.70;5.18;;;2.60;99.90;;;;;;4946766;29;20674;-87
2022/03/04 07:39:57;;;;;;;5.55;4.97;;;2.70;99.90;;;;;;4945742;29;20237;-85
2022/03/04 07:42:24;;;;;;;12.40;5.55;;;2.70;99.90;;;;;;4946535;29;20336;-84
2022/03/04 07:44:51;;;;;;;10.93;5.28;;;2.70;99.90;;;;;;4950383;29;20290;-86
2022/03/04 07:47:19;;;;;;;8.88;5.65;;;2.70;99.90;;;;;;4951582;29;20211;-85
2022/03/04 07:49:47;;;;;;;8.23;5.75;;;2.70;99.90;;;;;;4951586;29;20555;-86
2022/03/04 07:52:14;;;;;;;8.68;5.35;;;2.80;99.90;;;;;;4947710;29;20207;-86
2022/03/04 07:54:41;;;;;;;8.77;5.30;;;2.80;99.90;;;;;;4949605;29;20224;-85
2022/03/04 07:57:08;;;;;;;7.60;5.88;;;2.80;99.90;;;;;;4952403;29;20250;-85
2022/03/04 07:59:34;;;;;;;8.75;5.57;;;2.90;99.90;;;;;;4955891;29;20234;-84
2022/03/04 08:02:01;;;;;;;7.38;5.03;;;2.80;99.90;;;;;;4955593;29;20231;-86
2022/03/04 08:04:29;;;;;;;7.03;4.72;;;2.80;99.90;;;;;;4952439;29;20235;-86
2022/03/04 08:06:56;;;;;;;12.38;4.70;;;2.90;99.90;;;;;;4956649;29;20206;-87
2022/03/04 08:09:23;;;;;;;9.10;5.07;;;2.90;99.90;;;;;;4955353;29;20241;-86
2022/03/04 08:11:53;;;;;;;12.50;6.30;;;3.00;99.90;;;;;;4953487;29;20243;-86
2022/03/04 08:14:19;;;;;;;11.13;7.35;;;2.90;99.90;;;;;;4953063;29;20229;-82
2022/03/04 08:16:46;;;;;;;10.90;7.25;;;3.00;99.90;;;;;;4954148;29;20243;-83
2022/03/04 08:19:13;;;;;;;8.45;5.85;;;3.00;99.90;;;;;;4953685;29;20213;-84
2022/03/04 08:21:41;;;;;;;6.47;5.10;;;3.10;99.90;;;;;;4950210;29;20619;-84
2022/03/04 08:24:08;;;;;;;6.90;4.63;;;3.10;99.90;;;;;;4948667;29;20699;-84
2022/03/04 08:26:38;;;;;;;6.22;4.22;;;3.00;24.10;;;;;;4950431;29;20202;-84
2022/03/04 08:29:21;;;;;;;5.20;3.75;;;3.30;6.50;;;;;;4950308;29;20191;-84
2022/03/04 08:32:04;;;;;;;6.68;3.67;;;3.10;5.80;;;;;;4960283;28;20238;-83
2022/03/04 08:34:31;;;;;;;5.20;4.43;;;3.50;68.10;;;;;;4958059;28;20289;-84
2022/03/04 08:36:59;;;;;;;3.85;3.47;;;3.40;39.40;;;;;;4960579;28;20216;-84
2022/03/04 08:39:25;;;;;;;4.45;4.03;;;3.40;1.00;;;;;;4961136;28;20183;-81
2022/03/04 08:41:52;;;;;;;5.80;3.67;;;3.50;1.00;;;;;;4964342;28;20269;-82
2022/03/04 08:44:19;;;;;;;4.05;3.08;;;3.30;1.00;;;;;;4963686;28;20254;-83
2022/03/04 08:46:47;;;;;;;4.63;2.95;;;3.20;1.00;;;;;;4963720;28;20235;-83
2022/03/04 08:49:13;;;;;;;6.93;3.05;;;3.20;99.90;;;;;;4962775;28;20194;-83
2022/03/04 08:51:40;;;;;;;2.78;2.58;;;3.20;99.90;;;;;;4958339;29;20218;-83
2022/03/04 08:54:08;;;;;;;4.20;3.50;;;3.40;99.90;;;;;;4958256;29;20227;-83
2022/03/04 08:56:36;;;;;;;13.73;8.77;;;3.30;99.90;;;;;;4960965;29;20223;-83
2022/03/04 08:59:03;;;;;;;9.00;8.07;;;3.40;99.90;;;;;;4961457;29;20199;-83
2022/03/04 09:01:30;;;;;;;10.45;7.82;;;3.20;99.90;;;;;;4958749;29;20650;-83
2022/03/04 09:03:57;;;;;;;5.10;4.68;;;3.60;1.00;;;;;;4958906;29;20210;-83
2022/03/04 09:06:23;;;;;;;6.18;2.85;;;3.40;99.90;;;;;;4958891;29;20231;-84
2022/03/04 09:08:50;;;;;;;3.25;2.92;;;3.20;99.90;;;;;;4959149;29;20203;-84
2022/03/04 09:11:18;;;;;;;8.50;4.57;;;3.20;99.90;;;;;;4959708;29;20208;-83
2022/03/04 09:13:48;;;;;;;5.10;3.15;;;3.20;99.90;;;;;;4959001;29;20235;-83
2022/03/04 09:16:15;;;;;;;4.38;2.90;;;3.20;99.90;;;;;;4960122;29;20192;-83
2022/03/04 09:18:41;;;;;;;4.55;2.70;;;3.20;99.90;;;;;;4957669;29;20210;-83
2022/03/04 09:21:08;;;;;;;3.72;2.63;;;3.20;91.60;;;;;;4957257;29;20203;-83
2022/03/04 09:23:35;;;;;;;3.30;3.10;;;3.20;99.90;;;;;;4952577;29;20295;-84
2022/03/04 09:26:01;;;;;;;5.70;3.40;;;3.30;38.50;;;;;;4951510;29;20230;-83
2022/03/04 09:28:29;;;;;;;26.25;13.95;;;3.20;99.90;;;;;;4950632;29;20693;-83
2022/03/04 09:30:56;;;;;;;5.82;4.63;;;3.30;99.90;;;;;;4949767;29;20211;-84
2022/03/04 09:33:23;;;;;;;4.20;4.00;;;3.40;6.50;;;;;;4950889;29;20207;-83
2022/03/04 09:35:50;;;;;;;5.32;3.58;;;3.50;1.00;;;;;;4956560;29;20231;-82
2022/03/04 09:38:16;;;;;;;4.07;3.60;;;3.60;27.10;;;;;;4950882;29;20207;-84
2022/03/04 09:40:44;;;;;;;5.00;3.72;;;3.80;1.00;;;;;;4950682;29;20213;-84
2022/03/04 09:43:10;;;;;;;7.97;3.75;;;3.80;58.20;;;;;;4949977;29;20215;-84
2022/03/04 09:45:38;;;;;;;4.85;3.13;;;3.80;1.00;;;;;;4950452;29;20235;-83
2022/03/04 09:48:06;;;;;;;4.80;4.30;;;3.60;1.00;;;;;;4947845;29;20645;-83
2022/03/04 09:50:34;;;;;;;5.97;3.75;;;3.70;1.00;;;;;;4948683;29;20214;-84
2022/03/04 09:53:04;;;;;;;4.68;4.15;;;3.80;1.00;;;;;;4948108;29;20652;-83
2022/03/04 09:55:33;;;;;;;5.68;3.88;;;3.70;30.70;;;;;;4948525;29;20296;-84
2022/03/04 09:57:59;;;;;;;6.10;3.75;;;3.70;91.40;;;;;;4949507;29;20629;-84
2022/03/04 10:00:27;;;;;;;3.50;2.38;;;3.70;45.20;;;;;;4949136;29;20207;-84
2022/03/04 10:02:55;;;;;;;4.78;4.20;;;3.70;1.00;;;;;;4954047;29;20228;-83
2022/03/04 10:05:22;;;;;;;7.45;4.80;;;3.70;1.00;;;;;;4948029;29;20246;-84
2022/03/04 10:07:50;;;;;;;5.65;4.65;;;3.80;1.00;;;;;;4947587;29;20207;-83
2022/03/04 10:10:18;;;;;;;5.15;4.65;;;3.80;1.00;;;;;;4948517;29;20203;-83
2022/03/04 10:12:50;;;;;;;4.03;3.30;;;4.20;90.30;;;;;;4948620;29;20286;-84
2022/03/04 10:15:20;;;;;;;6.05;4.30;;;4.30;1.00;;;;;;4945467;29;20227;-84
2022/03/04 10:18:00;;;;;;;4.57;4.13;;;4.50;1.00;;;;;;4944895;29;20188;-84
2022/03/04 10:20:36;;;;;;;3.85;3.20;;;4.30;99.90;;;;;;4947877;29;20195;-83
2022/03/04 10:23:15;;;;;;;3.45;2.78;;;4.20;1.00;;;;;;4945282;29;20187;-83
2022/03/04 10:25:45;;;;;;;4.40;2.58;;;4.00;99.90;;;;;;4944449;29;20242;-84
2022/03/04 10:28:12;;;;;;;2.55;2.35;;;4.00;99.90;;;;;;4946607;29;20214;-84
2022/03/04 10:30:43;;;;;;;5.30;1.98;;;4.20;99.90;;;;;;4946781;29;20619;-84
2022/03/04 10:33:14;;;;;;;4.78;2.72;;;4.10;1.00;;;;;;4947872;29;20259;-83
2022/03/04 10:35:41;;;;;;;5.32;2.88;;;4.10;42.80;;;;;;4947017;29;20334;-83
2022/03/04 10:38:18;;;;;;;3.38;2.58;;;4.00;1.00;;;;;;4946332;29;20219;-83
2022/03/04 10:40:45;;;;;;;8.90;5.07;;;4.00;1.00;;;;;;4947080;29;20559;-83
2022/03/04 10:43:15;;;;;;;3.90;3.50;;;3.90;99.90;;;;;;4946102;29;20207;-83
2022/03/04 10:45:43;;;;;;;6.82;4.88;;;4.00;99.90;;;;;;4946123;29;20222;-84
2022/03/04 10:48:14;;;;;;;8.15;4.22;;;4.10;99.90;;;;;;4946620;29;20239;-84
2022/03/04 10:50:42;;;;;;;4.80;3.70;;;4.00;99.90;;;;;;4947104;29;20276;-84
2022/03/04 10:53:11;;;;;;;7.65;5.07;;;4.10;1.00;;;;;;4953402;29;20207;-82
2022/03/04 10:55:40;;;;;;;9.38;8.63;;;4.00;99.90;;;;;;4959933;28;20227;-83
2022/03/04 10:58:13;;;;;;;5.70;3.40;;;3.90;1.00;;;;;;4955321;29;20207;-83
2022/03/04 11:00:43;;;;;;;4.25;3.85;;;3.90;29.80;;;;;;4954834;29;20191;-85
2022/03/04 11:03:15;;;;;;;4.88;3.75;;;4.00;99.90;;;;;;4946331;29;20203;-84
2022/03/04 11:05:42;;;;;;;6.05;3.80;;;3.90;99.90;;;;;;4947998;29;20243;-84
2022/03/04 11:08:09;;;;;;;3.55;2.90;;;3.90;99.90;;;;;;4947034;29;20207;-84
2022/03/04 11:10:36;;;;;;;3.65;3.30;;;3.90;99.90;;;;;;4946488;29;20214;-84
2022/03/04 11:13:04;;;;;;;3.25;2.83;;;4.30;1.00;;;;;;4946263;29;20214;-83
2022/03/04 11:15:33;;;;;;;3.28;2.80;;;4.30;1.00;;;;;;4945346;29;20231;-84
2022/03/04 11:18:02;;;;;;;4.30;3.13;;;4.20;1.00;;;;;;4945276;29;20287;-83
2022/03/04 11:20:31;;;;;;;5.40;2.95;;;4.10;99.90;;;;;;4949242;28;20227;-83
2022/03/04 11:22:58;;;;;;;3.00;2.65;;;4.00;99.90;;;;;;4946217;29;20262;-83
2022/03/04 11:25:25;;;;;;;4.97;4.10;;;4.10;99.90;;;;;;4945956;29;20231;-83
2022/03/04 11:27:55;;;;;;;6.28;3.53;;;4.10;1.00;;;;;;4945557;29;20211;-83
2022/03/04 11:30:30;;;;;;;7.70;4.80;;;4.00;1.00;;;;;;4946080;29;20191;-84
2022/03/04 11:33:04;;;;;;;5.32;4.40;;;4.10;99.90;;;;;;4946448;29;20705;-84
2022/03/04 11:35:59;;;;;;;3.65;2.15;;;4.10;99.90;;;;;;4945272;29;20227;-82
2022/03/04 11:39:00;;;;;;;4.32;2.30;;;4.50;99.90;;;;;;4946048;29;20199;-84
2022/03/04 11:41:34;;;;;;;2.58;2.38;;;4.50;99.90;;;;;;4932925;29;20214;-85
2022/03/04 11:44:09;;;;;;;2.00;1.80;;;4.10;1.00;;;;;;4948877;29;20262;-82
2022/03/04 11:46:44;;;;;;;1.98;1.80;;;4.20;99.90;;;;;;4946260;29;20588;-84
2022/03/04 11:49:32;;;;;;;4.47;2.95;;;4.30;99.90;;;;;;4945519;29;20199;-84
2022/03/04 11:52:24;;;;;;;2.65;2.17;;;4.30;99.90;;;;;;4950182;29;20227;-83
2022/03/04 11:55:23;;;;;;;4.38;1.88;;;4.40;1.00;;;;;;4947585;29;20690;-83
2022/03/04 11:58:05;;;;;;;3.97;3.30;;;4.30;99.90;;;;;;4946693;29;20207;-83
2022/03/04 12:00:37;;;;;;;5.50;2.95;;;4.50;99.90;;;;;;4946413;29;20278;-85
2022/03/04 12:03:16;;;;;;;4.47;2.80;;;5.10;1.00;;;;;;4947365;29;20214;-84
2022/03/04 12:05:49;;;;;;;5.53;3.65;;;5.00;99.90;;;;;;4946776;29;20249;-84
2022/03/04 12:08:17;;;;;;;4.28;2.60;;;4.80;1.00;;;;;;4959678;28;20179;-82
2022/03/04 12:10:53;;;;;;;4.88;4.38;;;4.50;1.00;;;;;;4960367;28;20187;-80
2022/03/04 12:13:21;;;;;;;7.00;5.65;;;4.50;85.00;;;;;;4960048;28;20229;-83
2022/03/04 12:15:57;;;;;;;6.95;5.35;;;4.50;99.90;;;;;;4959751;28;20244;-81
2022/03/04 12:18:27;;;;;;;7.00;5.05;;;4.70;99.90;;;;;;4960541;28;20186;-82
2022/03/04 12:21:13;;;;;;;5.30;4.30;;;4.40;99.90;;;;;;4960159;28;20175;-82
2022/03/04 12:23:49;;;;;;;5.40;4.90;;;4.70;99.90;;;;;;4953735;29;20187;-83
2022/03/04 12:26:26;;;;;;;5.60;4.95;;;4.70;1.00;;;;;;4949863;29;20211;-84
2022/03/04 12:29:02;;;;;;;5.53;4.57;;;4.80;1.00;;;;;;4946355;29;20658;-84
2022/03/04 12:31:34;;;;;;;9.05;4.75;;;5.10;99.90;;;;;;4945427;29;20195;-84
2022/03/04 12:34:01;;;;;;;6.10;5.40;;;4.90;99.90;;;;;;4946136;29;20195;-82
2022/03/04 12:36:29;;;;;;;7.32;6.70;;;4.90;1.00;;;;;;4965400;23;20241;-86
2022/03/04 12:39:00;;;;;;;10.73;6.75;;;4.90;1.00;;;;;;4955237;29;20210;-85
2022/03/04 12:41:29;;;;;;;6.60;6.10;;;4.70;1.00;;;;;;4957268;29;20187;-85
2022/03/04 12:43:58;;;;;;;19.67;13.20;;;4.50;1.00;;;;;;4956679;29;20187;-86
2022/03/04 12:46:26;;;;;;;12.38;10.70;;;5.50;1.00;;;;;;4955502;29;20231;-85
2022/03/04 12:48:54;;;;;;;7.32;6.63;;;4.70;1.00;;;;;;4953102;29;20211;-85
2022/03/04 12:51:23;;;;;;;7.72;6.70;;;4.60;1.00;;;;;;4952038;29;20222;-87
2022/03/04 12:53:51;;;;;;;10.43;7.63;;;4.50;99.90;;;;;;4951592;29;20266;-85
2022/03/04 12:56:20;;;;;;;7.47;6.78;;;4.70;1.00;;;;;;4956647;28;20234;-84